sensor_id;sensor_type;location;lat;lon;timestamp;P1;durP1;ratioP1;P2;durP2;ratioP2
12114;SDS011;6121;49.810;6.418;2023-02-15T00:01:37;103.57;;;15.23;;
12114;SDS011;6121;49.810;6.418;2023-02-15T00:04:04;83.63;;;12.90;;
12114;SDS011;6121;49.810;6.418;2023-02-15T00:06:31;111.80;;;16.25;;
12114;SDS011;6121;49.810;6.418;2023-02-15T00:08:58;78.10;;;12.13;;
12114;SDS011;6121;49.810;6.418;2023-02-15T00:11:24;99.00;;;14.43;;
12114;SDS011;6121;49.810;6.418;2023-02-15T00:16:43;86.97;;;13.27;;
12114;SDS011;6121;49.810;6.418;2023-02-15T00:19:11;82.25;;;12.35;;
12114;SDS011;6121;49.810;6.418;2023-02-15T00:21:38;91.43;;;13.38;;
12114;SDS011;6121;49.810;6.418;2023-02-15T00:24:05;77.00;;;11.93;;
12114;SDS011;6121;49.810;6.418;2023-02-15T00:26:33;105.13;;;15.30;;
12114;SDS011;6121;49.810;6.418;2023-02-15T00:28:59;74.13;;;12.00;;
12114;SDS011;6121;49.810;6.418;2023-02-15T00:31:26;122.63;;;17.52;;
12114;SDS011;6121;49.810;6.418;2023-02-15T00:33:56;82.93;;;12.95;;
12114;SDS011;6121;49.810;6.418;2023-02-15T00:36:46;70.78;;;11.18;;
12114;SDS011;6121;49.810;6.418;2023-02-15T00:39:13;93.68;;;13.88;;
12114;SDS011;6121;49.810;6.418;2023-02-15T00:41:59;79.80;;;12.17;;
12114;SDS011;6121;49.810;6.418;2023-02-15T00:44:25;111.45;;;16.02;;
12114;SDS011;6121;49.810;6.418;2023-02-15T00:46:50;67.57;;;10.43;;
12114;SDS011;6121;49.810;6.418;2023-02-15T00:49:16;104.72;;;14.85;;
12114;SDS011;6121;49.810;6.418;2023-02-15T00:51:42;94.77;;;13.90;;
12114;SDS011;6121;49.810;6.418;2023-02-15T00:54:08;96.72;;;14.00;;
12114;SDS011;6121;49.810;6.418;2023-02-15T00:56:33;98.00;;;14.33;;
12114;SDS011;6121;49.810;6.418;2023-02-15T00:58:59;82.95;;;12.43;;
12114;SDS011;6121;49.810;6.418;2023-02-15T01:01:26;117.35;;;16.52;;
12114;SDS011;6121;49.810;6.418;2023-02-15T01:03:52;72.50;;;10.90;;
12114;SDS011;6121;49.810;6.418;2023-02-15T01:06:17;118.22;;;16.77;;
12114;SDS011;6121;49.810;6.418;2023-02-15T01:08:44;97.95;;;14.15;;
12114;SDS011;6121;49.810;6.418;2023-02-15T01:11:12;93.45;;;14.00;;
12114;SDS011;6121;49.810;6.418;2023-02-15T01:13:40;85.93;;;12.98;;
12114;SDS011;6121;49.810;6.418;2023-02-15T01:16:06;74.77;;;11.37;;
12114;SDS011;6121;49.810;6.418;2023-02-15T01:18:32;110.27;;;15.73;;
12114;SDS011;6121;49.810;6.418;2023-02-15T01:20:59;76.85;;;11.73;;
12114;SDS011;6121;49.810;6.418;2023-02-15T01:23:25;110.47;;;16.03;;
12114;SDS011;6121;49.810;6.418;2023-02-15T01:25:50;79.03;;;12.13;;
12114;SDS011;6121;49.810;6.418;2023-02-15T01:28:16;91.20;;;13.53;;
12114;SDS011;6121;49.810;6.418;2023-02-15T01:30:42;83.50;;;12.68;;
12114;SDS011;6121;49.810;6.418;2023-02-15T01:33:09;76.17;;;11.93;;
12114;SDS011;6121;49.810;6.418;2023-02-15T01:35:43;112.07;;;16.17;;
12114;SDS011;6121;49.810;6.418;2023-02-15T01:38:12;82.75;;;12.52;;
12114;SDS011;6121;49.810;6.418;2023-02-15T01:40:39;106.57;;;15.27;;
12114;SDS011;6121;49.810;6.418;2023-02-15T01:43:11;76.97;;;11.93;;
12114;SDS011;6121;49.810;6.418;2023-02-15T01:45:38;117.25;;;16.88;;
12114;SDS011;6121;49.810;6.418;2023-02-15T01:48:05;64.82;;;10.48;;
12114;SDS011;6121;49.810;6.418;2023-02-15T01:50:41;96.55;;;14.00;;
12114;SDS011;6121;49.810;6.418;2023-02-15T01:53:24;82.70;;;12.52;;
12114;SDS011;6121;49.810;6.418;2023-02-15T01:55:54;74.93;;;11.65;;
12114;SDS011;6121;49.810;6.418;2023-02-15T01:58:23;96.70;;;14.33;;
12114;SDS011;6121;49.810;6.418;2023-02-15T02:00:51;84.18;;;12.65;;
12114;SDS011;6121;49.810;6.418;2023-02-15T02:03:18;94.47;;;14.02;;
12114;SDS011;6121;49.810;6.418;2023-02-15T02:05:49;74.32;;;11.60;;
12114;SDS011;6121;49.810;6.418;2023-02-15T02:08:15;81.13;;;12.33;;
12114;SDS011;6121;49.810;6.418;2023-02-15T02:10:40;99.65;;;14.63;;
12114;SDS011;6121;49.810;6.418;2023-02-15T02:13:06;76.23;;;11.83;;
12114;SDS011;6121;49.810;6.418;2023-02-15T02:15:44;127.07;;;18.02;;
12114;SDS011;6121;49.810;6.418;2023-02-15T02:18:25;110.97;;;15.90;;
12114;SDS011;6121;49.810;6.418;2023-02-15T02:21:19;82.82;;;12.45;;
12114;SDS011;6121;49.810;6.418;2023-02-15T02:24:28;81.57;;;12.30;;
12114;SDS011;6121;49.810;6.418;2023-02-15T02:35:55;85.97;;;13.20;;
12114;SDS011;6121;49.810;6.418;2023-02-15T02:41:38;107.60;;;15.47;;
12114;SDS011;6121;49.810;6.418;2023-02-15T02:44:19;79.78;;;11.98;;
12114;SDS011;6121;49.810;6.418;2023-02-15T02:47:05;80.53;;;12.00;;
12114;SDS011;6121;49.810;6.418;2023-02-15T02:49:38;117.40;;;16.30;;
12114;SDS011;6121;49.810;6.418;2023-02-15T02:52:51;75.20;;;11.40;;
12114;SDS011;6121;49.810;6.418;2023-02-15T02:54:57;83.68;;;12.82;;
12114;SDS011;6121;49.810;6.418;2023-02-15T02:57:25;97.75;;;14.32;;
12114;SDS011;6121;49.810;6.418;2023-02-15T02:59:52;83.68;;;12.52;;
12114;SDS011;6121;49.810;6.418;2023-02-15T03:02:27;111.50;;;16.15;;
12114;SDS011;6121;49.810;6.418;2023-02-15T03:05:00;79.35;;;11.85;;
12114;SDS011;6121;49.810;6.418;2023-02-15T03:07:31;112.65;;;16.05;;
12114;SDS011;6121;49.810;6.418;2023-02-15T03:10:00;77.07;;;11.73;;
12114;SDS011;6121;49.810;6.418;2023-02-15T03:12:30;90.05;;;13.27;;
12114;SDS011;6121;49.810;6.418;2023-02-15T03:15:02;74.78;;;11.13;;
12114;SDS011;6121;49.810;6.418;2023-02-15T03:17:32;106.28;;;15.35;;
12114;SDS011;6121;49.810;6.418;2023-02-15T03:20:03;87.85;;;13.20;;
12114;SDS011;6121;49.810;6.418;2023-02-15T03:22:41;128.35;;;17.98;;
12114;SDS011;6121;49.810;6.418;2023-02-15T03:25:19;102.82;;;14.75;;
12114;SDS011;6121;49.810;6.418;2023-02-15T03:27:52;91.50;;;13.48;;
12114;SDS011;6121;49.810;6.418;2023-02-15T03:30:21;110.32;;;15.85;;
12114;SDS011;6121;49.810;6.418;2023-02-15T03:32:48;102.07;;;14.80;;
12114;SDS011;6121;49.810;6.418;2023-02-15T03:35:16;77.30;;;11.93;;
12114;SDS011;6121;49.810;6.418;2023-02-15T03:37:47;117.70;;;16.73;;
12114;SDS011;6121;49.810;6.418;2023-02-15T03:40:27;84.18;;;12.70;;
12114;SDS011;6121;49.810;6.418;2023-02-15T03:45:51;96.57;;;14.02;;
12114;SDS011;6121;49.810;6.418;2023-02-15T03:48:26;101.32;;;14.75;;
12114;SDS011;6121;49.810;6.418;2023-02-15T03:50:55;95.00;;;13.90;;
12114;SDS011;6121;49.810;6.418;2023-02-15T03:53:45;159.45;;;21.65;;
12114;SDS011;6121;49.810;6.418;2023-02-15T03:56:13;96.10;;;14.18;;
12114;SDS011;6121;49.810;6.418;2023-02-15T03:58:39;118.40;;;16.70;;
12114;SDS011;6121;49.810;6.418;2023-02-15T04:01:32;121.57;;;17.02;;
12114;SDS011;6121;49.810;6.418;2023-02-15T04:04:22;119.00;;;16.52;;
12114;SDS011;6121;49.810;6.418;2023-02-15T04:07:00;100.78;;;14.55;;
12114;SDS011;6121;49.810;6.418;2023-02-15T04:09:27;120.90;;;16.98;;
12114;SDS011;6121;49.810;6.418;2023-02-15T04:12:12;112.55;;;15.80;;
12114;SDS011;6121;49.810;6.418;2023-02-15T04:14:38;122.25;;;16.98;;
12114;SDS011;6121;49.810;6.418;2023-02-15T04:17:22;130.23;;;18.35;;
12114;SDS011;6121;49.810;6.418;2023-02-15T04:19:48;128.95;;;18.13;;
12114;SDS011;6121;49.810;6.418;2023-02-15T04:22:32;155.30;;;21.42;;
12114;SDS011;6121;49.810;6.418;2023-02-15T04:25:17;100.22;;;14.60;;
12114;SDS011;6121;49.810;6.418;2023-02-15T04:27:52;126.55;;;17.92;;
12114;SDS011;6121;49.810;6.418;2023-02-15T04:30:23;83.88;;;12.70;;
12114;SDS011;6121;49.810;6.418;2023-02-15T04:32:50;129.57;;;18.30;;
12114;SDS011;6121;49.810;6.418;2023-02-15T04:35:18;109.18;;;16.08;;
12114;SDS011;6121;49.810;6.418;2023-02-15T04:37:44;131.50;;;18.67;;
12114;SDS011;6121;49.810;6.418;2023-02-15T04:40:11;100.20;;;14.38;;
12114;SDS011;6121;49.810;6.418;2023-02-15T04:42:38;132.60;;;18.58;;
12114;SDS011;6121;49.810;6.418;2023-02-15T04:45:05;117.23;;;16.57;;
12114;SDS011;6121;49.810;6.418;2023-02-15T04:47:31;129.02;;;18.27;;
12114;SDS011;6121;49.810;6.418;2023-02-15T04:49:57;130.63;;;18.23;;
12114;SDS011;6121;49.810;6.418;2023-02-15T04:52:23;121.15;;;16.70;;
12114;SDS011;6121;49.810;6.418;2023-02-15T04:54:50;118.13;;;16.50;;
12114;SDS011;6121;49.810;6.418;2023-02-15T04:57:16;120.50;;;16.95;;
12114;SDS011;6121;49.810;6.418;2023-02-15T04:59:42;142.18;;;19.58;;
12114;SDS011;6121;49.810;6.418;2023-02-15T05:02:08;106.63;;;15.45;;
12114;SDS011;6121;49.810;6.418;2023-02-15T05:04:34;112.32;;;16.08;;
12114;SDS011;6121;49.810;6.418;2023-02-15T05:07:00;97.30;;;14.20;;
12114;SDS011;6121;49.810;6.418;2023-02-15T05:09:25;120.13;;;17.17;;
12114;SDS011;6121;49.810;6.418;2023-02-15T05:11:51;119.10;;;16.60;;
12114;SDS011;6121;49.810;6.418;2023-02-15T05:14:17;114.63;;;16.08;;
12114;SDS011;6121;49.810;6.418;2023-02-15T05:16:43;126.57;;;17.67;;
12114;SDS011;6121;49.810;6.418;2023-02-15T05:19:09;124.68;;;17.42;;
12114;SDS011;6121;49.810;6.418;2023-02-15T05:21:34;121.07;;;17.17;;
12114;SDS011;6121;49.810;6.418;2023-02-15T05:24:01;120.55;;;16.92;;
12114;SDS011;6121;49.810;6.418;2023-02-15T05:26:47;140.95;;;19.45;;
12114;SDS011;6121;49.810;6.418;2023-02-15T05:29:34;135.60;;;19.00;;
12114;SDS011;6121;49.810;6.418;2023-02-15T05:32:00;110.03;;;15.83;;
12114;SDS011;6121;49.810;6.418;2023-02-15T05:34:25;132.38;;;18.55;;
12114;SDS011;6121;49.810;6.418;2023-02-15T05:36:51;128.68;;;18.35;;
12114;SDS011;6121;49.810;6.418;2023-02-15T05:39:17;90.50;;;13.57;;
12114;SDS011;6121;49.810;6.418;2023-02-15T05:41:44;132.57;;;18.77;;
12114;SDS011;6121;49.810;6.418;2023-02-15T05:44:10;122.18;;;17.40;;
12114;SDS011;6121;49.810;6.418;2023-02-15T05:46:36;147.55;;;20.40;;
12114;SDS011;6121;49.810;6.418;2023-02-15T05:49:02;113.10;;;16.05;;
12114;SDS011;6121;49.810;6.418;2023-02-15T05:51:28;109.60;;;15.77;;
12114;SDS011;6121;49.810;6.418;2023-02-15T05:53:54;182.27;;;24.52;;
12114;SDS011;6121;49.810;6.418;2023-02-15T05:56:20;108.90;;;15.60;;
12114;SDS011;6121;49.810;6.418;2023-02-15T05:58:45;141.07;;;19.70;;
12114;SDS011;6121;49.810;6.418;2023-02-15T06:01:13;106.30;;;15.10;;
12114;SDS011;6121;49.810;6.418;2023-02-15T06:03:46;137.63;;;18.95;;
12114;SDS011;6121;49.810;6.418;2023-02-15T06:06:12;111.13;;;15.68;;
12114;SDS011;6121;49.810;6.418;2023-02-15T06:08:37;136.93;;;19.13;;
12114;SDS011;6121;49.810;6.418;2023-02-15T06:11:03;87.15;;;12.82;;
12114;SDS011;6121;49.810;6.418;2023-02-15T06:13:30;138.63;;;19.42;;
12114;SDS011;6121;49.810;6.418;2023-02-15T06:15:56;124.83;;;17.57;;
12114;SDS011;6121;49.810;6.418;2023-02-15T06:18:23;84.38;;;12.63;;
12114;SDS011;6121;49.810;6.418;2023-02-15T06:20:49;116.28;;;16.55;;
12114;SDS011;6121;49.810;6.418;2023-02-15T06:23:15;130.55;;;18.48;;
12114;SDS011;6121;49.810;6.418;2023-02-15T06:25:41;145.70;;;20.20;;
12114;SDS011;6121;49.810;6.418;2023-02-15T06:28:09;108.85;;;15.75;;
12114;SDS011;6121;49.810;6.418;2023-02-15T06:30:35;152.23;;;21.02;;
12114;SDS011;6121;49.810;6.418;2023-02-15T06:33:02;124.50;;;17.77;;
12114;SDS011;6121;49.810;6.418;2023-02-15T06:35:27;124.90;;;17.63;;
12114;SDS011;6121;49.810;6.418;2023-02-15T06:37:53;139.65;;;19.50;;
12114;SDS011;6121;49.810;6.418;2023-02-15T06:40:19;126.80;;;17.73;;
12114;SDS011;6121;49.810;6.418;2023-02-15T06:42:45;108.88;;;15.82;;
12114;SDS011;6121;49.810;6.418;2023-02-15T06:45:11;107.82;;;15.68;;
12114;SDS011;6121;49.810;6.418;2023-02-15T06:47:37;151.23;;;20.83;;
12114;SDS011;6121;49.810;6.418;2023-02-15T06:50:04;105.28;;;15.18;;
12114;SDS011;6121;49.810;6.418;2023-02-15T06:52:32;140.23;;;19.33;;
12114;SDS011;6121;49.810;6.418;2023-02-15T06:54:57;126.03;;;17.73;;
12114;SDS011;6121;49.810;6.418;2023-02-15T06:57:24;106.75;;;15.35;;
12114;SDS011;6121;49.810;6.418;2023-02-15T06:59:50;143.53;;;20.03;;
12114;SDS011;6121;49.810;6.418;2023-02-15T07:02:16;130.45;;;18.30;;
12114;SDS011;6121;49.810;6.418;2023-02-15T07:04:41;260.97;;;34.43;;
12114;SDS011;6121;49.810;6.418;2023-02-15T07:07:08;191.75;;;25.60;;
12114;SDS011;6121;49.810;6.418;2023-02-15T07:09:35;287.75;;;37.72;;
12114;SDS011;6121;49.810;6.418;2023-02-15T07:12:01;192.77;;;26.30;;
12114;SDS011;6121;49.810;6.418;2023-02-15T07:14:48;214.57;;;28.52;;
12114;SDS011;6121;49.810;6.418;2023-02-15T07:17:14;212.90;;;28.38;;
12114;SDS011;6121;49.810;6.418;2023-02-15T07:19:40;233.05;;;31.10;;
12114;SDS011;6121;49.810;6.418;2023-02-15T07:22:06;191.70;;;25.93;;
12114;SDS011;6121;49.810;6.418;2023-02-15T07:24:32;169.57;;;22.92;;
12114;SDS011;6121;49.810;6.418;2023-02-15T07:26:58;275.95;;;36.00;;
12114;SDS011;6121;49.810;6.418;2023-02-15T07:29:24;141.87;;;19.77;;
12114;SDS011;6121;49.810;6.418;2023-02-15T07:31:50;176.48;;;24.05;;
12114;SDS011;6121;49.810;6.418;2023-02-15T07:34:15;186.43;;;25.30;;
12114;SDS011;6121;49.810;6.418;2023-02-15T07:36:42;257.67;;;34.15;;
12114;SDS011;6121;49.810;6.418;2023-02-15T07:39:09;151.35;;;21.00;;
12114;SDS011;6121;49.810;6.418;2023-02-15T07:41:36;192.93;;;25.98;;
12114;SDS011;6121;49.810;6.418;2023-02-15T07:44:13;168.55;;;22.95;;
12114;SDS011;6121;49.810;6.418;2023-02-15T07:46:40;265.83;;;34.80;;
12114;SDS011;6121;49.810;6.418;2023-02-15T07:49:06;176.15;;;23.98;;
12114;SDS011;6121;49.810;6.418;2023-02-15T07:51:33;158.03;;;21.73;;
12114;SDS011;6121;49.810;6.418;2023-02-15T07:53:59;217.80;;;29.10;;
12114;SDS011;6121;49.810;6.418;2023-02-15T07:56:25;279.50;;;36.47;;
12114;SDS011;6121;49.810;6.418;2023-02-15T07:58:51;195.63;;;26.57;;
12114;SDS011;6121;49.810;6.418;2023-02-15T08:03:48;202.00;;;27.23;;
12114;SDS011;6121;49.810;6.418;2023-02-15T08:06:14;250.23;;;33.10;;
12114;SDS011;6121;49.810;6.418;2023-02-15T08:08:41;205.27;;;27.55;;
12114;SDS011;6121;49.810;6.418;2023-02-15T08:18:58;204.93;;;27.73;;
12114;SDS011;6121;49.810;6.418;2023-02-15T08:21:27;178.95;;;24.25;;
12114;SDS011;6121;49.810;6.418;2023-02-15T08:23:54;221.75;;;29.42;;
12114;SDS011;6121;49.810;6.418;2023-02-15T08:26:21;282.85;;;36.90;;
12114;SDS011;6121;49.810;6.418;2023-02-15T08:28:48;208.52;;;28.02;;
12114;SDS011;6121;49.810;6.418;2023-02-15T08:31:15;185.63;;;25.25;;
12114;SDS011;6121;49.810;6.418;2023-02-15T08:33:42;208.55;;;28.20;;
12114;SDS011;6121;49.810;6.418;2023-02-15T08:36:10;253.27;;;33.38;;
12114;SDS011;6121;49.810;6.418;2023-02-15T08:38:38;195.80;;;26.15;;
12114;SDS011;6121;49.810;6.418;2023-02-15T08:43:45;218.15;;;29.05;;
12114;SDS011;6121;49.810;6.418;2023-02-15T08:46:19;263.58;;;34.70;;
12114;SDS011;6121;49.810;6.418;2023-02-15T08:48:46;197.23;;;26.67;;
12114;SDS011;6121;49.810;6.418;2023-02-15T08:51:14;144.07;;;20.08;;
12114;SDS011;6121;49.810;6.418;2023-02-15T08:53:46;222.23;;;29.65;;
12114;SDS011;6121;49.810;6.418;2023-02-15T08:56:16;232.48;;;30.95;;
12114;SDS011;6121;49.810;6.418;2023-02-15T08:58:45;207.43;;;28.13;;
12114;SDS011;6121;49.810;6.418;2023-02-15T09:01:13;164.32;;;22.63;;
12114;SDS011;6121;49.810;6.418;2023-02-15T09:03:43;202.63;;;27.20;;
12114;SDS011;6121;49.810;6.418;2023-02-15T09:06:10;231.63;;;30.90;;
12114;SDS011;6121;49.810;6.418;2023-02-15T09:08:36;187.77;;;25.63;;
12114;SDS011;6121;49.810;6.418;2023-02-15T09:11:06;213.55;;;28.73;;
12114;SDS011;6121;49.810;6.418;2023-02-15T09:13:32;156.10;;;21.90;;
12114;SDS011;6121;49.810;6.418;2023-02-15T09:16:00;208.63;;;28.08;;
12114;SDS011;6121;49.810;6.418;2023-02-15T09:18:31;173.93;;;23.92;;
12114;SDS011;6121;49.810;6.418;2023-02-15T09:21:04;206.73;;;27.93;;
12114;SDS011;6121;49.810;6.418;2023-02-15T09:23:30;170.02;;;23.73;;
12114;SDS011;6121;49.810;6.418;2023-02-15T09:26:01;201.75;;;27.40;;
12114;SDS011;6121;49.810;6.418;2023-02-15T09:28:30;184.93;;;25.25;;
12114;SDS011;6121;49.810;6.418;2023-02-15T09:31:04;216.57;;;29.30;;
12114;SDS011;6121;49.810;6.418;2023-02-15T09:33:40;185.65;;;25.42;;
12114;SDS011;6121;49.810;6.418;2023-02-15T09:36:30;245.43;;;32.97;;
12114;SDS011;6121;49.810;6.418;2023-02-15T09:38:58;225.93;;;30.42;;
12114;SDS011;6121;49.810;6.418;2023-02-15T09:47:14;286.08;;;38.15;;
12114;SDS011;6121;49.810;6.418;2023-02-15T10:04:18;210.63;;;29.35;;
12114;SDS011;6121;49.810;6.418;2023-02-15T10:15:23;192.45;;;26.85;;
12114;SDS011;6121;49.810;6.418;2023-02-15T10:18:01;211.43;;;29.00;;
12114;SDS011;6121;49.810;6.418;2023-02-15T10:20:57;212.38;;;29.80;;
12114;SDS011;6121;49.810;6.418;2023-02-15T10:27:11;260.27;;;35.72;;
12114;SDS011;6121;49.810;6.418;2023-02-15T10:32:14;238.63;;;34.80;;
12114;SDS011;6121;49.810;6.418;2023-02-15T10:45:23;212.63;;;34.17;;
12114;SDS011;6121;49.810;6.418;2023-02-15T10:51:03;208.20;;;33.50;;
12114;SDS011;6121;49.810;6.418;2023-02-15T10:56:33;308.40;;;49.90;;
12114;SDS011;6121;49.810;6.418;2023-02-15T11:08:07;244.88;;;54.33;;
12114;SDS011;6121;49.810;6.418;2023-02-15T11:10:46;206.47;;;49.70;;
12114;SDS011;6121;49.810;6.418;2023-02-15T11:13:18;234.95;;;49.13;;
12114;SDS011;6121;49.810;6.418;2023-02-15T11:21:01;246.82;;;59.92;;
12114;SDS011;6121;49.810;6.418;2023-02-15T11:23:29;242.85;;;77.95;;
12114;SDS011;6121;49.810;6.418;2023-02-15T11:25:58;307.48;;;74.97;;
12114;SDS011;6121;49.810;6.418;2023-02-15T11:28:37;209.95;;;65.80;;
12114;SDS011;6121;49.810;6.418;2023-02-15T11:31:21;248.73;;;65.90;;
12114;SDS011;6121;49.810;6.418;2023-02-15T11:33:50;249.32;;;62.25;;
12114;SDS011;6121;49.810;6.418;2023-02-15T11:36:20;282.70;;;68.47;;
12114;SDS011;6121;49.810;6.418;2023-02-15T11:38:51;242.45;;;57.15;;
12114;SDS011;6121;49.810;6.418;2023-02-15T11:41:28;230.25;;;49.20;;
12114;SDS011;6121;49.810;6.418;2023-02-15T11:44:08;305.17;;;57.05;;
12114;SDS011;6121;49.810;6.418;2023-02-15T11:46:46;311.38;;;54.38;;
12114;SDS011;6121;49.810;6.418;2023-02-15T11:51:57;250.57;;;45.42;;
12114;SDS011;6121;49.810;6.418;2023-02-15T11:54:34;233.32;;;43.70;;
12114;SDS011;6121;49.810;6.418;2023-02-15T11:57:04;325.58;;;59.33;;
12114;SDS011;6121;49.810;6.418;2023-02-15T11:59:39;238.60;;;41.30;;
12114;SDS011;6121;49.810;6.418;2023-02-15T12:02:15;260.52;;;50.03;;
12114;SDS011;6121;49.810;6.418;2023-02-15T12:04:47;246.25;;;47.55;;
12114;SDS011;6121;49.810;6.418;2023-02-15T12:10:00;249.07;;;41.17;;
12114;SDS011;6121;49.810;6.418;2023-02-15T12:13:07;215.25;;;35.30;;
12114;SDS011;6121;49.810;6.418;2023-02-15T12:15:35;221.82;;;34.42;;
12114;SDS011;6121;49.810;6.418;2023-02-15T12:18:01;234.48;;;36.75;;
12114;SDS011;6121;49.810;6.418;2023-02-15T12:20:28;190.13;;;30.52;;
12114;SDS011;6121;49.810;6.418;2023-02-15T12:22:59;241.70;;;36.50;;
12114;SDS011;6121;49.810;6.418;2023-02-15T12:25:40;209.50;;;32.03;;
12114;SDS011;6121;49.810;6.418;2023-02-15T12:28:22;237.35;;;35.67;;
12114;SDS011;6121;49.810;6.418;2023-02-15T12:30:49;202.70;;;30.77;;
12114;SDS011;6121;49.810;6.418;2023-02-15T12:33:34;223.25;;;33.35;;
12114;SDS011;6121;49.810;6.418;2023-02-15T12:38:37;223.27;;;33.57;;
12114;SDS011;6121;49.810;6.418;2023-02-15T12:41:21;228.53;;;35.13;;
12114;SDS011;6121;49.810;6.418;2023-02-15T12:47:05;311.55;;;45.53;;
12114;SDS011;6121;49.810;6.418;2023-02-15T12:49:42;252.20;;;37.55;;
12114;SDS011;6121;49.810;6.418;2023-02-15T12:54:49;251.55;;;37.65;;
12114;SDS011;6121;49.810;6.418;2023-02-15T12:57:29;288.85;;;42.28;;
12114;SDS011;6121;49.810;6.418;2023-02-15T12:59:57;237.83;;;35.87;;
12114;SDS011;6121;49.810;6.418;2023-02-15T13:02:36;251.80;;;38.05;;
12114;SDS011;6121;49.810;6.418;2023-02-15T13:05:17;262.98;;;39.15;;
12114;SDS011;6121;49.810;6.418;2023-02-15T13:07:49;248.30;;;37.17;;
12114;SDS011;6121;49.810;6.418;2023-02-15T13:10:20;236.00;;;35.83;;
12114;SDS011;6121;49.810;6.418;2023-02-15T13:12:58;230.85;;;35.08;;
12114;SDS011;6121;49.810;6.418;2023-02-15T13:15:32;246.50;;;37.23;;
12114;SDS011;6121;49.810;6.418;2023-02-15T13:18:01;274.88;;;42.20;;
12114;SDS011;6121;49.810;6.418;2023-02-15T13:20:28;198.25;;;32.50;;
12114;SDS011;6121;49.810;6.418;2023-02-15T13:23:02;188.55;;;32.00;;
12114;SDS011;6121;49.810;6.418;2023-02-15T13:25:32;210.98;;;33.63;;
12114;SDS011;6121;49.810;6.418;2023-02-15T13:28:07;249.43;;;39.25;;
12114;SDS011;6121;49.810;6.418;2023-02-15T13:30:42;193.00;;;31.92;;
12114;SDS011;6121;49.810;6.418;2023-02-15T13:50:03;220.52;;;35.95;;
12114;SDS011;6121;49.810;6.418;2023-02-15T13:55:44;212.35;;;37.33;;
12114;SDS011;6121;49.810;6.418;2023-02-15T14:06:38;278.45;;;47.35;;
12114;SDS011;6121;49.810;6.418;2023-02-15T14:14:45;274.75;;;47.97;;
12114;SDS011;6121;49.810;6.418;2023-02-15T14:17:48;260.25;;;47.42;;
12114;SDS011;6121;49.810;6.418;2023-02-15T14:26:10;245.20;;;44.40;;
12114;SDS011;6121;49.810;6.418;2023-02-15T14:29:15;233.50;;;44.85;;
12114;SDS011;6121;49.810;6.418;2023-02-15T14:31:46;193.02;;;40.17;;
12114;SDS011;6121;49.810;6.418;2023-02-15T14:34:27;258.80;;;47.63;;
12114;SDS011;6121;49.810;6.418;2023-02-15T14:37:00;308.92;;;54.63;;
12114;SDS011;6121;49.810;6.418;2023-02-15T14:39:43;223.77;;;43.13;;
12114;SDS011;6121;49.810;6.418;2023-02-15T14:45:35;229.03;;;42.27;;
12114;SDS011;6121;49.810;6.418;2023-02-15T14:48:16;263.52;;;47.38;;
12114;SDS011;6121;49.810;6.418;2023-02-15T14:50:54;214.20;;;40.67;;
12114;SDS011;6121;49.810;6.418;2023-02-15T14:56:05;235.25;;;42.80;;
12114;SDS011;6121;49.810;6.418;2023-02-15T15:01:31;262.08;;;45.75;;
12114;SDS011;6121;49.810;6.418;2023-02-15T15:04:01;244.30;;;45.58;;
12114;SDS011;6121;49.810;6.418;2023-02-15T15:06:34;283.05;;;51.95;;
12114;SDS011;6121;49.810;6.418;2023-02-15T15:11:54;196.77;;;39.38;;
12114;SDS011;6121;49.810;6.418;2023-02-15T15:14:39;200.55;;;39.78;;
12114;SDS011;6121;49.810;6.418;2023-02-15T15:17:08;316.47;;;54.07;;
12114;SDS011;6121;49.810;6.418;2023-02-15T15:19:56;207.25;;;39.92;;
12114;SDS011;6121;49.810;6.418;2023-02-15T15:22:24;216.30;;;42.20;;
12114;SDS011;6121;49.810;6.418;2023-02-15T15:25:02;244.27;;;43.38;;
12114;SDS011;6121;49.810;6.418;2023-02-15T15:27:36;256.67;;;47.20;;
12114;SDS011;6121;49.810;6.418;2023-02-15T15:30:46;228.35;;;44.20;;
12114;SDS011;6121;49.810;6.418;2023-02-15T15:41:26;236.70;;;46.30;;
12114;SDS011;6121;49.810;6.418;2023-02-15T15:44:07;224.17;;;43.50;;
12114;SDS011;6121;49.810;6.418;2023-02-15T15:49:58;209.73;;;42.88;;
12114;SDS011;6121;49.810;6.418;2023-02-15T15:52:24;229.07;;;43.10;;
12114;SDS011;6121;49.810;6.418;2023-02-15T15:54:56;186.52;;;39.38;;
12114;SDS011;6121;49.810;6.418;2023-02-15T15:57:29;269.67;;;48.85;;
12114;SDS011;6121;49.810;6.418;2023-02-15T16:00:01;208.90;;;41.45;;
12114;SDS011;6121;49.810;6.418;2023-02-15T16:02:49;214.68;;;43.70;;
12114;SDS011;6121;49.810;6.418;2023-02-15T16:05:16;233.37;;;46.83;;
12114;SDS011;6121;49.810;6.418;2023-02-15T16:07:42;255.17;;;48.13;;
12114;SDS011;6121;49.810;6.418;2023-02-15T16:10:19;205.98;;;43.58;;
12114;SDS011;6121;49.810;6.418;2023-02-15T16:12:51;198.32;;;41.70;;
12114;SDS011;6121;49.810;6.418;2023-02-15T16:15:25;260.95;;;50.33;;
12114;SDS011;6121;49.810;6.418;2023-02-15T16:17:59;247.32;;;50.08;;
12114;SDS011;6121;49.810;6.418;2023-02-15T16:20:30;241.82;;;45.63;;
12114;SDS011;6121;49.810;6.418;2023-02-15T16:23:46;211.68;;;41.78;;
12114;SDS011;6121;49.810;6.418;2023-02-15T16:26:03;221.73;;;43.47;;
12114;SDS011;6121;49.810;6.418;2023-02-15T16:28:53;201.02;;;40.58;;
12114;SDS011;6121;49.810;6.418;2023-02-15T16:31:20;249.57;;;47.00;;
12114;SDS011;6121;49.810;6.418;2023-02-15T16:33:52;210.90;;;46.17;;
12114;SDS011;6121;49.810;6.418;2023-02-15T16:36:29;291.45;;;56.83;;
12114;SDS011;6121;49.810;6.418;2023-02-15T16:41:25;255.65;;;54.15;;
12114;SDS011;6121;49.810;6.418;2023-02-15T16:43:56;188.70;;;43.30;;
12114;SDS011;6121;49.810;6.418;2023-02-15T16:46:30;307.42;;;63.60;;
12114;SDS011;6121;49.810;6.418;2023-02-15T16:48:58;214.68;;;53.28;;
12114;SDS011;6121;49.810;6.418;2023-02-15T16:51:29;230.07;;;55.25;;
12114;SDS011;6121;49.810;6.418;2023-02-15T16:54:00;176.02;;;47.63;;
12114;SDS011;6121;49.810;6.418;2023-02-15T16:56:32;143.68;;;39.95;;
12114;SDS011;6121;49.810;6.418;2023-02-15T16:58:59;146.83;;;41.50;;
12114;SDS011;6121;49.810;6.418;2023-02-15T17:01:27;184.88;;;46.70;;
12114;SDS011;6121;49.810;6.418;2023-02-15T17:04:12;144.02;;;40.08;;
12114;SDS011;6121;49.810;6.418;2023-02-15T17:09:30;178.98;;;43.95;;
12114;SDS011;6121;49.810;6.418;2023-02-15T17:12:00;136.90;;;38.80;;
12114;SDS011;6121;49.810;6.418;2023-02-15T17:14:30;211.52;;;43.97;;
12114;SDS011;6121;49.810;6.418;2023-02-15T17:17:06;131.90;;;37.47;;
12114;SDS011;6121;49.810;6.418;2023-02-15T17:19:43;164.38;;;38.13;;
12114;SDS011;6121;49.810;6.418;2023-02-15T17:22:18;153.00;;;33.30;;
12114;SDS011;6121;49.810;6.418;2023-02-15T17:24:46;181.90;;;40.47;;
12114;SDS011;6121;49.810;6.418;2023-02-15T17:27:15;166.35;;;39.75;;
12114;SDS011;6121;49.810;6.418;2023-02-15T17:30:30;151.10;;;37.30;;
12114;SDS011;6121;49.810;6.418;2023-02-15T17:33:01;138.30;;;35.92;;
12114;SDS011;6121;49.810;6.418;2023-02-15T17:35:29;189.90;;;44.83;;
12114;SDS011;6121;49.810;6.418;2023-02-15T17:38:00;147.10;;;40.75;;
12114;SDS011;6121;49.810;6.418;2023-02-15T17:40:29;165.23;;;38.95;;
12114;SDS011;6121;49.810;6.418;2023-02-15T17:42:57;148.00;;;39.40;;
12114;SDS011;6121;49.810;6.418;2023-02-15T17:45:25;173.73;;;41.65;;
12114;SDS011;6121;49.810;6.418;2023-02-15T17:47:56;138.98;;;37.75;;